Kezdőlap
METAR-TAF:

METAR-TAF

Repülőterek :

Aurillac, Franciaország

földrajzi szélesség: 44-53N, földrajzi hosszúság: 002-25E, magasság: 639 m

Jelenlegi meteorológiai megfigyelések

A jelentés 32 perccel ezelõtt készült, 15:00 UTC
Különbözõ irányokból fújó szél 3 kt
Hőmérséklet 10°C
Páratartalom 53%
Légköri nyomás 1021 hPa
Látótávolság 10 km, vagy több

METAR: LFLW 061500Z AUTO VRB03KT 9999 ////// 10/01 Q1021

Idő: 16:32 (15:32 UTC)

Előrejelzés

A jelentés 1 órával és 32 perccel ezelõtt készült, 14:00 UTC
Az előrejelzés 06-én 15 óra UTC és 06-én 24 óra UTC között érvényes
Különbözõ irányokból fújó szél 3 kt
Látótávolság 10 km, vagy több
felhőtlen 1500 m magasságban, és nincs gomolyfelhõ

TAF: LFLW 061400Z 0615/0624 VRB03KT CAVOK

Meteorológiai megfigyelések és előrejelzések több, mint 4000 repülőtéren (METAR és TAF jelentéseket).

A térképen piros és sárga pontok jelzik az elérhető meteorológiai állomásokat.

Mozgassa az egeret a pont fölött, hogy megjelenjen az állomás neve.

Azután kattintson az időjárási megfigyelések és előrejelzések megtekintéséhez.

A térkép megváltoztatása: kattintson a fekete keresztel jelölt zöld gombra ráközelítéshez, a vonallal jelölt zöld gombra távolításhoz, vagy a zöld nyilakra a szomszédos térképek eléréséhez.


METAR-TAF: